createdAt,value
2018-06-02T00:01:17.227Z,99842.56
2018-06-02T00:03:43.177Z,99837.91
2018-06-02T00:06:09.137Z,99838.81
2018-06-02T00:08:35.104Z,99839.64
2018-06-02T00:11:01.088Z,99836.55
2018-06-02T00:13:27.014Z,99836.73
2018-06-02T00:15:52.961Z,99833.00
2018-06-02T00:18:18.904Z,99831.77
2018-06-02T00:20:44.839Z,99826.48
2018-06-02T00:23:10.793Z,99832.03
2018-06-02T00:25:36.768Z,99832.77
2018-06-02T00:28:02.726Z,99830.36
2018-06-02T00:30:28.677Z,99827.80
2018-06-02T00:32:54.613Z,99834.83
2018-06-02T00:35:20.595Z,99821.95
2018-06-02T00:37:46.522Z,99827.54
2018-06-02T00:40:12.506Z,99821.72
2018-06-02T00:42:38.460Z,99827.38
2018-06-02T00:45:04.393Z,99820.95
2018-06-02T00:47:30.371Z,99819.81
2018-06-02T00:49:56.324Z,99822.33
2018-06-02T00:52:22.272Z,99823.59
2018-06-02T00:54:48.219Z,99826.21
2018-06-02T00:57:14.188Z,99824.73
2018-06-02T00:59:40.137Z,99832.22
2018-06-02T01:02:06.085Z,99826.17
2018-06-02T01:04:32.029Z,99830.68
2018-06-02T01:06:57.992Z,99824.81
2018-06-02T01:09:24.464Z,99821.06
2018-06-02T01:11:50.394Z,99821.98
2018-06-02T01:14:16.369Z,99821.62
2018-06-02T01:16:42.322Z,99829.35
2018-06-02T01:19:08.279Z,99824.14
2018-06-02T01:21:34.226Z,99828.03
2018-06-02T01:24:00.180Z,99820.02
2018-06-02T01:26:26.153Z,99825.47
2018-06-02T01:28:52.115Z,99822.24
2018-06-02T01:31:18.072Z,99824.00
2018-06-02T01:33:44.016Z,99819.31
2018-06-02T01:36:09.962Z,99817.91
2018-06-02T01:38:35.894Z,99809.45
2018-06-02T01:41:01.832Z,99815.75
2018-06-02T01:43:27.757Z,99822.03
2018-06-02T01:45:53.691Z,99824.06
2018-06-02T01:48:19.622Z,99823.00
2018-06-02T01:50:45.583Z,99826.66
2018-06-02T01:53:11.522Z,99824.22
2018-06-02T01:55:37.451Z,99828.70
2018-06-02T01:58:03.385Z,99829.31
2018-06-02T02:00:29.334Z,99829.66
2018-06-02T02:02:55.284Z,99831.66
2018-06-02T02:05:21.415Z,99828.71
2018-06-02T02:07:47.370Z,99832.22
2018-06-02T02:10:13.305Z,99830.23
2018-06-02T02:12:39.258Z,99834.09
2018-06-02T02:15:05.204Z,99836.20
2018-06-02T02:17:31.288Z,99838.92
2018-06-02T02:19:57.280Z,99839.55
2018-06-02T02:22:23.235Z,99846.41
2018-06-02T02:24:49.177Z,99845.73
2018-06-02T02:27:15.120Z,99845.30
2018-06-02T02:29:41.088Z,99844.39
2018-06-02T02:32:07.032Z,99846.68
2018-06-02T02:34:32.982Z,99845.57
2018-06-02T02:36:58.926Z,99847.30
2018-06-02T02:39:24.879Z,99845.34
2018-06-02T02:41:50.857Z,99848.80
2018-06-02T02:44:16.806Z,99850.28
2018-06-02T02:46:42.742Z,99855.69
2018-06-02T02:49:08.678Z,99851.56
2018-06-02T02:51:34.615Z,99856.80
2018-06-02T02:54:00.537Z,99856.23
2018-06-02T02:56:26.585Z,99857.30
2018-06-02T02:58:52.540Z,99862.18
2018-06-02T03:01:18.490Z,99863.58
2018-06-02T03:03:44.459Z,99863.27
2018-06-02T03:06:10.394Z,99870.00
2018-06-02T03:08:36.317Z,99866.26
2018-06-02T03:11:02.249Z,99862.60
2018-06-02T03:13:28.212Z,99868.06
2018-06-02T03:15:54.158Z,99875.25
2018-06-02T03:18:20.111Z,99882.06
2018-06-02T03:20:46.062Z,99880.41
2018-06-02T03:23:12.029Z,99882.67
2018-06-02T03:25:37.980Z,99887.94
2018-06-02T03:28:03.930Z,99889.16
2018-06-02T03:30:29.896Z,99887.67
2018-06-02T03:32:55.837Z,99889.55
2018-06-02T03:35:21.801Z,99892.97
2018-06-02T03:37:47.756Z,99891.73
2018-06-02T03:40:13.711Z,99894.32
2018-06-02T03:42:39.662Z,99898.21
2018-06-02T03:45:05.617Z,99896.89
2018-06-02T03:47:31.569Z,99899.69
2018-06-02T03:49:57.556Z,99899.95
2018-06-02T03:52:23.491Z,99902.98
2018-06-02T03:54:49.452Z,99905.99
2018-06-02T03:57:15.379Z,99902.94
2018-06-02T03:59:41.351Z,99894.67
2018-06-02T04:02:07.312Z,99904.79
2018-06-02T04:04:33.276Z,99901.64
2018-06-02T04:06:59.217Z,99899.70
2018-06-02T04:09:25.222Z,99900.56
2018-06-02T04:11:51.176Z,99903.07
2018-06-02T04:14:17.132Z,99900.52
2018-06-02T04:16:43.104Z,99908.13
2018-06-02T04:19:09.070Z,99913.44
2018-06-02T04:21:35.016Z,99909.88
2018-06-02T04:24:01.000Z,99908.38
2018-06-02T04:26:26.960Z,99911.70
2018-06-02T04:28:52.948Z,99917.21
2018-06-02T04:31:18.869Z,99915.03
2018-06-02T04:33:44.818Z,99916.69
2018-06-02T04:36:10.790Z,99920.77
2018-06-02T04:38:36.768Z,99922.80
2018-06-02T04:41:02.748Z,99921.58
2018-06-02T04:43:28.707Z,99925.89
2018-06-02T04:45:54.677Z,99927.42
2018-06-02T04:48:20.666Z,99925.87
2018-06-02T04:50:46.628Z,99932.31
2018-06-02T04:53:12.585Z,99934.52
2018-06-02T04:55:38.561Z,99935.34
2018-06-02T04:58:04.516Z,99931.14
2018-06-02T05:00:30.471Z,99936.88
2018-06-02T05:02:56.411Z,99941.49
2018-06-02T05:05:23.094Z,99940.29
2018-06-02T05:07:49.070Z,99937.07
2018-06-02T05:10:15.052Z,99935.26
2018-06-02T05:12:40.989Z,99943.03
2018-06-02T05:15:07.026Z,99949.46
2018-06-02T05:17:33.015Z,99948.00
2018-06-02T05:19:58.981Z,99942.17
2018-06-02T05:22:24.935Z,99954.16
2018-06-02T05:24:50.897Z,99950.31
2018-06-02T05:27:16.859Z,99956.72
2018-06-02T05:29:42.805Z,99958.28
2018-06-02T05:32:08.817Z,99956.90
2018-06-02T05:34:34.798Z,99958.88
2018-06-02T05:37:00.761Z,99956.52
2018-06-02T05:39:26.707Z,99956.91
2018-06-02T05:41:52.661Z,99952.47
2018-06-02T05:44:18.631Z,99954.77
2018-06-02T05:46:44.592Z,99953.14
2018-06-02T05:49:10.534Z,99954.07
2018-06-02T05:51:36.468Z,99954.22
2018-06-02T05:54:02.428Z,99957.44
2018-06-02T05:56:28.379Z,99951.92
2018-06-02T05:58:54.315Z,99953.96
2018-06-02T06:01:20.277Z,99947.38
2018-06-02T06:03:46.245Z,99947.95
2018-06-02T06:06:12.236Z,99951.06
2018-06-02T06:08:38.185Z,99951.50
2018-06-02T06:11:04.169Z,99947.69
2018-06-02T06:13:30.134Z,99956.34
2018-06-02T06:15:56.108Z,99955.09
2018-06-02T06:18:22.068Z,99949.95
2018-06-02T06:20:48.039Z,99964.70
2018-06-02T06:23:13.995Z,99958.44
2018-06-02T06:25:39.949Z,99955.28
2018-06-02T06:28:05.881Z,99949.85
2018-06-02T06:30:31.844Z,99946.48
2018-06-02T06:32:57.835Z,99946.55
2018-06-02T06:35:23.804Z,99950.64
2018-06-02T06:37:49.816Z,99938.23
2018-06-02T06:40:15.772Z,99940.62
2018-06-02T06:42:41.737Z,99943.39
2018-06-02T06:45:07.687Z,99944.41
2018-06-02T06:47:33.636Z,99944.41
2018-06-02T06:49:59.572Z,99937.55
2018-06-02T06:52:25.551Z,99940.87
2018-06-02T06:54:51.507Z,99943.08
2018-06-02T06:57:17.769Z,99946.32
2018-06-02T06:59:43.707Z,99947.44
2018-06-02T07:02:09.642Z,99939.32
2018-06-02T07:04:35.597Z,99944.98
2018-06-02T07:07:01.529Z,99944.34
2018-06-02T07:09:27.504Z,99937.39
2018-06-02T07:11:53.547Z,99939.78
2018-06-02T07:14:19.519Z,99942.43
2018-06-02T07:16:45.458Z,99942.47
2018-06-02T07:19:11.416Z,99949.62
2018-06-02T07:21:38.293Z,99945.27
2018-06-02T07:24:04.229Z,99952.50
2018-06-02T07:26:30.205Z,99948.28
2018-06-02T07:28:56.661Z,99953.26
2018-06-02T07:31:22.644Z,99951.06
2018-06-02T07:33:48.625Z,99954.52
2018-06-02T07:36:14.842Z,99957.36
2018-06-02T07:38:40.811Z,99948.69
2018-06-02T07:41:06.809Z,99952.20
2018-06-02T07:43:32.776Z,99951.29
2018-06-02T07:45:58.844Z,99954.27
2018-06-02T07:48:24.792Z,99958.14
2018-06-02T07:50:50.766Z,99955.06
2018-06-02T07:53:16.851Z,99951.17
2018-06-02T07:55:42.803Z,99953.59
2018-06-02T07:58:09.104Z,99959.31
2018-06-02T08:00:35.096Z,99959.02
2018-06-02T08:03:01.026Z,99953.70
2018-06-02T08:05:26.991Z,99960.41
2018-06-02T08:07:53.035Z,99970.10
2018-06-02T08:10:19.026Z,99965.50
2018-06-02T08:12:45.004Z,99965.72
2018-06-02T08:15:10.976Z,99963.56
2018-06-02T08:17:36.940Z,99962.20
2018-06-02T08:20:02.908Z,99966.45
2018-06-02T08:22:29.752Z,99977.07
2018-06-02T08:24:55.719Z,99982.00
2018-06-02T08:27:21.676Z,99985.59
2018-06-02T08:29:48.665Z,99985.61
2018-06-02T08:32:14.630Z,99985.06
2018-06-02T08:34:45.246Z,99987.20
2018-06-02T08:37:11.216Z,99995.19
2018-06-02T08:39:38.246Z,99988.84
2018-06-02T08:42:04.339Z,99993.28
2018-06-02T08:44:30.318Z,99993.56
2018-06-02T08:46:56.407Z,99999.81
2018-06-02T08:49:22.741Z,99992.83
2018-06-02T08:51:48.774Z,99992.39
2018-06-02T08:54:14.716Z,99999.33
2018-06-02T08:56:40.686Z,100002.87
2018-06-02T08:59:06.620Z,100006.76
2018-06-02T09:01:32.569Z,99998.58
2018-06-02T09:03:58.529Z,100000.05
2018-06-02T09:06:24.480Z,99998.84
2018-06-02T09:08:50.446Z,100003.43
2018-06-02T09:11:16.437Z,100000.55
2018-06-02T09:13:42.385Z,99999.53
2018-06-02T09:16:08.341Z,99993.37
2018-06-02T09:18:34.294Z,99993.76
2018-06-02T09:21:00.254Z,99988.95
2018-06-02T09:23:26.210Z,99998.59
2018-06-02T09:25:52.296Z,99995.73
2018-06-02T09:28:18.297Z,99992.95
2018-06-02T09:30:44.271Z,99990.03
2018-06-02T09:33:10.217Z,99993.13
2018-06-02T09:35:36.178Z,99995.02
2018-06-02T09:38:02.156Z,99993.98
2018-06-02T09:40:28.117Z,99994.58
2018-06-02T09:42:54.115Z,99994.55
2018-06-02T09:45:20.097Z,99985.13
2018-06-02T09:47:46.207Z,99986.36
2018-06-02T09:50:12.084Z,99990.82
2018-06-02T09:52:38.035Z,99988.05
2018-06-02T09:55:03.988Z,99989.68
2018-06-02T09:57:29.943Z,99992.70
2018-06-02T09:59:55.897Z,99988.39
2018-06-02T10:02:21.887Z,99985.47
2018-06-02T10:04:47.834Z,99985.77
2018-06-02T10:07:13.826Z,99988.06
2018-06-02T10:09:39.805Z,99988.89
2018-06-02T10:12:05.762Z,99994.20
2018-06-02T10:14:31.746Z,99993.05
2018-06-02T10:16:57.689Z,99993.34
2018-06-02T10:19:23.626Z,99999.75
2018-06-02T10:21:49.588Z,99995.08
2018-06-02T10:24:15.533Z,99990.98
2018-06-02T10:26:41.874Z,99993.94
2018-06-02T10:29:07.920Z,99992.89
2018-06-02T10:31:33.936Z,99993.77
2018-06-02T10:34:00.002Z,99997.44
2018-06-02T10:36:27.094Z,99999.02
2018-06-02T10:38:53.087Z,99999.05
2018-06-02T10:41:19.226Z,99992.86
2018-06-02T10:43:45.197Z,99993.84
2018-06-02T10:46:11.152Z,99998.16
2018-06-02T10:48:37.180Z,99992.17
2018-06-02T10:51:03.160Z,99998.18
2018-06-02T10:53:29.115Z,99993.17
2018-06-02T10:55:55.081Z,100001.31
2018-06-02T10:58:21.134Z,99999.06
2018-06-02T11:00:47.063Z,99995.11
2018-06-02T11:03:13.057Z,99995.19
2018-06-02T11:05:39.025Z,99996.61
2018-06-02T11:08:04.996Z,99996.64
2018-06-02T11:10:30.934Z,100004.50
2018-06-02T11:12:56.927Z,100003.09
2018-06-02T11:15:22.924Z,100003.08
2018-06-02T11:17:48.896Z,100006.16
2018-06-02T11:20:14.844Z,100008.51
2018-06-02T11:22:40.803Z,100014.59
2018-06-02T11:25:06.746Z,100004.01
2018-06-02T11:27:32.685Z,100013.06
2018-06-02T11:29:58.621Z,100007.67
2018-06-02T11:32:24.554Z,100006.51
2018-06-02T11:34:50.587Z,99998.88
2018-06-02T11:37:16.573Z,100009.67
2018-06-02T11:39:42.544Z,99998.77
2018-06-02T11:42:08.532Z,99998.02
2018-06-02T11:44:34.498Z,99994.34
2018-06-02T11:47:00.494Z,99993.03
2018-06-02T11:49:26.483Z,99993.14
2018-06-02T11:51:52.436Z,99993.42
2018-06-02T11:54:18.417Z,99989.67
2018-06-02T11:56:44.384Z,99991.55
2018-06-02T11:59:10.320Z,99994.77
2018-06-02T12:01:36.276Z,99989.18
2018-06-02T12:04:02.336Z,99992.56
2018-06-02T12:06:28.288Z,99994.13
2018-06-02T12:08:54.279Z,99990.64
2018-06-02T12:11:20.291Z,99993.70
2018-06-02T12:13:46.274Z,99989.22
2018-06-02T12:16:12.266Z,99986.77
2018-06-02T12:18:38.291Z,99981.27
2018-06-02T12:21:04.246Z,99983.25
2018-06-02T12:23:30.236Z,99985.53
2018-06-02T12:25:56.317Z,99989.48
2018-06-02T12:28:22.315Z,99981.69
2018-06-02T12:30:48.467Z,99981.02
2018-06-02T12:33:14.486Z,99979.58
2018-06-02T12:35:40.512Z,99975.51
2018-06-02T12:38:06.537Z,99982.09
2018-06-02T12:43:04.345Z,99972.31
2018-06-02T12:45:31.519Z,99971.29
2018-06-02T12:47:57.593Z,99973.25
2018-06-02T12:50:23.606Z,99969.82
2018-06-02T12:52:49.686Z,99971.92
2018-06-02T12:55:15.726Z,99967.51
2018-06-02T12:57:41.840Z,99968.77
2018-06-02T13:00:08.014Z,99972.81
2018-06-02T13:02:34.047Z,99975.46
2018-06-02T13:05:00.270Z,99970.53
2018-06-02T13:07:26.740Z,99962.45
2018-06-02T13:09:52.779Z,99965.92
2018-06-02T13:12:18.766Z,99969.20
2018-06-02T13:14:44.708Z,99959.94
2018-06-02T13:17:10.685Z,99957.72
2018-06-02T13:19:36.643Z,99952.41
2018-06-02T13:22:02.675Z,99959.45
2018-06-02T13:24:28.654Z,99960.38
2018-06-02T13:26:54.628Z,99953.17
2018-06-02T13:29:20.792Z,99958.03
2018-06-02T13:31:46.733Z,99951.12
2018-06-02T13:34:12.754Z,99952.39
2018-06-02T13:36:38.780Z,99948.58
2018-06-02T13:39:04.769Z,99948.26
2018-06-02T13:41:30.798Z,99944.22
2018-06-02T13:43:56.775Z,99946.06
2018-06-02T13:46:22.759Z,99946.13
2018-06-02T13:48:48.785Z,99941.31
2018-06-02T13:51:14.731Z,99939.66
2018-06-02T13:53:40.680Z,99934.57
2018-06-02T13:56:06.646Z,99938.88
2018-06-02T13:58:32.602Z,99930.55
2018-06-02T14:00:58.569Z,99938.63
2018-06-02T14:03:24.497Z,99941.33
2018-06-02T14:05:50.454Z,99944.84
2018-06-02T14:08:16.418Z,99937.94
2018-06-02T14:10:42.396Z,99943.33
2018-06-02T14:13:08.610Z,99944.33
2018-06-02T14:15:34.559Z,99937.09
2018-06-02T14:18:00.519Z,99930.43
2018-06-02T14:20:26.484Z,99936.08
2018-06-02T14:22:52.442Z,99933.56
2018-06-02T14:25:18.425Z,99928.05
2018-06-02T14:27:44.459Z,99936.44
2018-06-02T14:30:10.421Z,99936.50
2018-06-02T14:32:36.369Z,99929.64
2018-06-02T14:35:02.314Z,99933.09
2018-06-02T14:37:28.388Z,99929.89
2018-06-02T14:39:54.359Z,99926.77
2018-06-02T14:42:21.114Z,99926.10
2018-06-02T14:44:47.072Z,99926.97
2018-06-02T14:47:13.023Z,99925.37
2018-06-02T14:49:39.097Z,99924.23
2018-06-02T14:52:05.118Z,99915.11
2018-06-02T14:54:31.088Z,99920.27
2018-06-02T14:56:57.188Z,99922.45
2018-06-02T14:59:23.177Z,99927.39
2018-06-02T15:01:49.137Z,99925.39
2018-06-02T15:04:15.094Z,99922.48
2018-06-02T15:06:41.082Z,99926.91
2018-06-02T15:09:07.042Z,99924.03
2018-06-02T15:11:33.045Z,99921.19
2018-06-02T15:13:59.033Z,99917.81
2018-06-02T15:16:25.077Z,99926.32
2018-06-02T15:18:51.050Z,99930.27
2018-06-02T15:21:17.068Z,99921.19
2018-06-02T15:23:43.096Z,99927.16
2018-06-02T15:26:09.060Z,99928.32
2018-06-02T15:28:35.005Z,99923.25
2018-06-02T15:31:01.011Z,99931.82
2018-06-02T15:33:27.021Z,99924.15
2018-06-02T15:35:53.056Z,99931.55
2018-06-02T15:38:19.049Z,99929.62
2018-06-02T15:40:45.038Z,99926.09
2018-06-02T15:43:11.057Z,99928.74
2018-06-02T15:45:37.332Z,99931.96
2018-06-02T15:48:03.292Z,99930.75
2018-06-02T15:50:29.276Z,99931.25
2018-06-02T15:52:55.259Z,99926.30
2018-06-02T15:55:21.237Z,99922.31
2018-06-02T15:57:47.218Z,99915.48
2018-06-02T16:00:13.232Z,99923.23
2018-06-02T16:02:39.244Z,99921.20
2018-06-02T16:05:05.218Z,99920.72
2018-06-02T16:07:31.213Z,99911.50
2018-06-02T16:09:57.309Z,99919.45
2018-06-02T16:12:23.345Z,99916.66
2018-06-02T16:14:49.295Z,99922.57
2018-06-02T16:17:15.262Z,99921.33
2018-06-02T16:19:41.333Z,99923.79
2018-06-02T16:22:07.340Z,99917.79
2018-06-02T16:24:33.293Z,99923.91
2018-06-02T16:26:59.232Z,99925.87
2018-06-02T16:29:25.203Z,99926.52
2018-06-02T16:31:51.179Z,99927.09
2018-06-02T16:34:17.128Z,99928.03
2018-06-02T16:36:43.104Z,99919.57
2018-06-02T16:39:09.091Z,99927.28
2018-06-02T16:41:35.331Z,99924.06
2018-06-02T16:44:01.709Z,99934.44
2018-06-02T16:46:27.748Z,99930.63
2018-06-02T16:48:53.983Z,99928.74
2018-06-02T16:51:20.362Z,99930.01
2018-06-02T16:53:47.683Z,99929.44
2018-06-02T16:56:14.518Z,99932.78
2018-06-02T16:58:40.804Z,99933.25
2018-06-02T17:01:06.973Z,99940.85
2018-06-02T17:03:33.197Z,99937.19
2018-06-02T17:05:59.493Z,99942.83
2018-06-02T17:08:25.743Z,99942.73
2018-06-02T17:10:52.912Z,99943.16
2018-06-02T17:13:19.146Z,99936.05
2018-06-02T17:15:45.121Z,99941.96
2018-06-02T17:18:11.100Z,99941.80
2018-06-02T17:20:37.163Z,99948.44
2018-06-02T17:23:03.192Z,99950.69
2018-06-02T17:25:29.306Z,99955.70
2018-06-02T17:27:55.341Z,99945.67
2018-06-02T17:30:21.375Z,99954.47
2018-06-02T17:32:47.433Z,99959.48
2018-06-02T17:35:13.445Z,99964.08
2018-06-02T17:37:39.467Z,99965.70
2018-06-02T17:40:05.604Z,99962.00
2018-06-02T17:42:31.704Z,99963.77
2018-06-02T17:44:57.661Z,99960.52
2018-06-02T17:47:23.681Z,99954.55
2018-06-02T17:49:49.716Z,99956.78
2018-06-02T17:52:15.876Z,99961.31
2018-06-02T17:54:41.851Z,99955.70
2018-06-02T17:57:07.933Z,99959.83
2018-06-02T17:59:33.937Z,99953.05
2018-06-02T18:02:00.137Z,99962.67
2018-06-02T18:04:26.104Z,99958.32
2018-06-02T18:06:52.210Z,99964.98
2018-06-02T18:09:18.194Z,99969.09
2018-06-02T18:11:45.212Z,99970.82
2018-06-02T18:14:13.288Z,99968.23
2018-06-02T18:16:39.447Z,99969.94
2018-06-02T18:19:05.498Z,99972.02
2018-06-02T18:21:31.486Z,99971.64
2018-06-02T18:23:57.588Z,99969.89
2018-06-02T18:26:56.856Z,99968.39
2018-06-02T18:29:22.906Z,99966.19
2018-06-02T18:31:48.916Z,99966.29
2018-06-02T18:34:14.851Z,99972.72
2018-06-02T18:36:40.968Z,99973.02
2018-06-02T18:39:10.853Z,99973.08
2018-06-02T18:41:36.851Z,99979.59
2018-06-02T18:44:02.824Z,99969.77
2018-06-02T18:46:28.832Z,99977.09
2018-06-02T18:48:54.812Z,99976.31
2018-06-02T18:51:20.843Z,99970.77
2018-06-02T18:53:46.929Z,99972.27
2018-06-02T18:56:12.913Z,99970.55
2018-06-02T18:58:38.968Z,99972.40
2018-06-02T19:01:05.050Z,99982.76
2018-06-02T19:03:30.995Z,99980.14
2018-06-02T19:05:56.985Z,99979.23
2018-06-02T19:08:22.990Z,99979.73
2018-06-02T19:10:48.951Z,99985.39
2018-06-02T19:13:14.997Z,99991.89
2018-06-02T19:15:40.957Z,99987.19
2018-06-02T19:18:07.124Z,99986.86
2018-06-02T19:20:33.255Z,99987.33
2018-06-02T19:22:59.275Z,99991.52
2018-06-02T19:25:25.264Z,99996.89
2018-06-02T19:27:51.241Z,99998.47
2018-06-02T19:30:17.245Z,99992.99
2018-06-02T19:32:43.246Z,99998.61
2018-06-02T19:35:09.238Z,100002.27
2018-06-02T19:37:35.190Z,100009.34
2018-06-02T19:40:01.269Z,100012.36
2018-06-02T19:42:27.221Z,100012.31
2018-06-02T19:44:53.217Z,100010.31
2018-06-02T19:47:19.204Z,100004.55
2018-06-02T19:49:45.156Z,100006.89
2018-06-02T19:52:11.129Z,100013.37
2018-06-02T19:54:37.109Z,100011.41
2018-06-02T19:57:03.132Z,100012.81
2018-06-02T19:59:29.121Z,100013.95
2018-06-02T20:01:55.163Z,100006.75
2018-06-02T20:04:21.187Z,100004.38
2018-06-02T20:06:47.166Z,100004.77
2018-06-02T20:09:13.201Z,100002.60
2018-06-02T20:11:39.228Z,99996.31
2018-06-02T20:14:05.323Z,100004.28
2018-06-02T20:16:31.331Z,99995.92
2018-06-02T20:18:57.362Z,100001.11
2018-06-02T20:21:23.343Z,99993.06
2018-06-02T20:23:49.317Z,99992.94
2018-06-02T20:26:15.297Z,99996.80
2018-06-02T20:28:41.312Z,99994.84
2018-06-02T20:31:07.267Z,99995.67
2018-06-02T20:33:33.250Z,100000.55
2018-06-02T20:35:59.273Z,99996.23
2018-06-02T20:38:25.289Z,99995.13
2018-06-02T20:40:51.277Z,100000.09
2018-06-02T20:43:17.268Z,99996.41
2018-06-02T20:45:43.303Z,99997.91
2018-06-02T20:48:09.242Z,99996.73
2018-06-02T20:50:35.184Z,100005.27
2018-06-02T20:53:01.145Z,100002.75
2018-06-02T20:55:27.130Z,99997.22
2018-06-02T20:57:53.110Z,100000.37
2018-06-02T21:00:19.125Z,100000.14
2018-06-02T21:02:45.139Z,100004.90
2018-06-02T21:05:11.184Z,100006.86
2018-06-02T21:07:37.131Z,100008.39
2018-06-02T21:10:03.139Z,100010.11
2018-06-02T21:12:29.139Z,100005.44
2018-06-02T21:14:55.135Z,100015.10
2018-06-02T21:17:21.399Z,100011.85
2018-06-02T21:19:47.394Z,100008.95
2018-06-02T21:22:13.349Z,100018.98
2018-06-02T21:24:39.305Z,100013.87
2018-06-02T21:27:05.268Z,100018.19
2018-06-02T21:29:31.220Z,100024.59
2018-06-02T21:31:57.174Z,100020.78
2018-06-02T21:34:23.151Z,100020.89
2018-06-02T21:36:49.100Z,100018.84
2018-06-02T21:39:15.089Z,100018.95
2018-06-02T21:41:41.098Z,100023.02
2018-06-02T21:44:07.081Z,100029.41
2018-06-02T21:46:33.054Z,100026.28
2018-06-02T21:48:59.052Z,100028.98
2018-06-02T21:51:25.018Z,100028.17
2018-06-02T21:53:50.981Z,100025.72
2018-06-02T21:56:16.973Z,100033.45
2018-06-02T21:58:43.040Z,100038.25
2018-06-02T22:01:09.001Z,100038.48
2018-06-02T22:03:34.968Z,100034.93
2018-06-02T22:06:00.981Z,100037.63
2018-06-02T22:08:26.932Z,100036.89
2018-06-02T22:10:52.899Z,100032.14
2018-06-02T22:13:18.842Z,100025.95
2018-06-02T22:15:44.780Z,100026.57
2018-06-02T22:18:10.729Z,100025.72
2018-06-02T22:20:36.744Z,100020.79
2018-06-02T22:23:02.677Z,100022.41
2018-06-02T22:25:28.650Z,100025.42
2018-06-02T22:27:54.610Z,100022.47
2018-06-02T22:30:20.564Z,100029.51
2018-06-02T22:32:46.589Z,100030.24
2018-06-02T22:35:12.590Z,100034.89
2018-06-02T22:37:38.563Z,100033.77
2018-06-02T22:40:04.519Z,100038.94
2018-06-02T22:42:30.543Z,100035.05
2018-06-02T22:44:56.508Z,100032.02
2018-06-02T22:47:22.509Z,100036.05
2018-06-02T22:49:48.481Z,100032.43
2018-06-02T22:52:14.413Z,100035.59
2018-06-02T22:54:40.394Z,100038.09
2018-06-02T22:57:06.350Z,100038.53
2018-06-02T22:59:32.300Z,100038.70
2018-06-02T23:01:58.272Z,100045.33
2018-06-02T23:04:24.221Z,100045.89
2018-06-02T23:06:50.193Z,100050.62
2018-06-02T23:09:16.155Z,100058.30
2018-06-02T23:11:42.138Z,100059.36
2018-06-02T23:14:08.099Z,100058.42
2018-06-02T23:16:34.066Z,100059.46
2018-06-02T23:19:00.040Z,100060.32
2018-06-02T23:21:25.997Z,100062.93
2018-06-02T23:23:51.936Z,100065.87
2018-06-02T23:26:17.945Z,100066.91
2018-06-02T23:28:43.881Z,100058.14
2018-06-02T23:31:09.825Z,100059.59
2018-06-02T23:33:35.773Z,100063.42
2018-06-02T23:36:01.740Z,100068.00
2018-06-02T23:38:27.684Z,100067.64
2018-06-02T23:40:53.633Z,100066.58
2018-06-02T23:43:19.583Z,100064.78
2018-06-02T23:45:45.532Z,100066.44
2018-06-02T23:48:11.468Z,100067.37
2018-06-02T23:50:37.430Z,100059.75
2018-06-02T23:53:03.371Z,100059.93
2018-06-02T23:55:29.323Z,100063.45
2018-06-02T23:57:55.257Z,100063.59
